sensor_id;sensor_type;location;lat;lon;timestamp;P1;durP1;ratioP1;P2;durP2;ratioP2
3004;SDS011;1512;51.486;6.610;2023-04-03T00:01:31;8.47;;;6.33;;
3004;SDS011;1512;51.486;6.610;2023-04-03T00:05:40;10.53;;;7.37;;
3004;SDS011;1512;51.486;6.610;2023-04-03T00:09:48;7.37;;;5.80;;
3004;SDS011;1512;51.486;6.610;2023-04-03T00:13:57;7.20;;;6.10;;
3004;SDS011;1512;51.486;6.610;2023-04-03T00:18:06;8.00;;;6.20;;
3004;SDS011;1512;51.486;6.610;2023-04-03T00:22:15;11.17;;;6.67;;
3004;SDS011;1512;51.486;6.610;2023-04-03T00:26:23;7.50;;;6.80;;
3004;SDS011;1512;51.486;6.610;2023-04-03T00:30:32;9.10;;;6.00;;
3004;SDS011;1512;51.486;6.610;2023-04-03T00:34:41;8.40;;;5.67;;
3004;SDS011;1512;51.486;6.610;2023-04-03T00:38:50;5.73;;;5.10;;
3004;SDS011;1512;51.486;6.610;2023-04-03T00:42:59;7.00;;;5.70;;
3004;SDS011;1512;51.486;6.610;2023-04-03T00:47:08;6.10;;;4.93;;
3004;SDS011;1512;51.486;6.610;2023-04-03T00:51:25;6.13;;;5.40;;
3004;SDS011;1512;51.486;6.610;2023-04-03T00:55:54;7.15;;;5.80;;
3004;SDS011;1512;51.486;6.610;2023-04-03T01:00:08;6.57;;;5.37;;
3004;SDS011;1512;51.486;6.610;2023-04-03T01:04:38;6.43;;;4.77;;
3004;SDS011;1512;51.486;6.610;2023-04-03T01:08:49;11.03;;;7.40;;
3004;SDS011;1512;51.486;6.610;2023-04-03T01:12:58;8.63;;;6.43;;
3004;SDS011;1512;51.486;6.610;2023-04-03T01:22:16;24.00;;;8.87;;
3004;SDS011;1512;51.486;6.610;2023-04-03T01:26:15;12.50;;;7.77;;
3004;SDS011;1512;51.486;6.610;2023-04-03T01:30:25;11.57;;;6.90;;
3004;SDS011;1512;51.486;6.610;2023-04-03T01:34:36;7.40;;;6.10;;
3004;SDS011;1512;51.486;6.610;2023-04-03T01:38:44;11.43;;;5.97;;
3004;SDS011;1512;51.486;6.610;2023-04-03T01:42:53;6.00;;;5.47;;
3004;SDS011;1512;51.486;6.610;2023-04-03T01:47:02;9.90;;;5.67;;
3004;SDS011;1512;51.486;6.610;2023-04-03T01:51:14;6.00;;;4.77;;
3004;SDS011;1512;51.486;6.610;2023-04-03T01:55:23;4.67;;;4.27;;
3004;SDS011;1512;51.486;6.610;2023-04-03T02:04:17;6.23;;;4.20;;
3004;SDS011;1512;51.486;6.610;2023-04-03T02:08:26;3.83;;;3.50;;
3004;SDS011;1512;51.486;6.610;2023-04-03T02:12:35;3.87;;;3.47;;
3004;SDS011;1512;51.486;6.610;2023-04-03T02:16:43;4.43;;;3.80;;
3004;SDS011;1512;51.486;6.610;2023-04-03T02:20:52;7.10;;;3.73;;
3004;SDS011;1512;51.486;6.610;2023-04-03T02:25:01;4.00;;;3.60;;
3004;SDS011;1512;51.486;6.610;2023-04-03T02:29:10;5.50;;;3.47;;
3004;SDS011;1512;51.486;6.610;2023-04-03T02:33:18;8.20;;;3.73;;
3004;SDS011;1512;51.486;6.610;2023-04-03T02:37:27;6.80;;;3.43;;
3004;SDS011;1512;51.486;6.610;2023-04-03T02:41:36;3.17;;;2.87;;
3004;SDS011;1512;51.486;6.610;2023-04-03T02:45:44;7.73;;;3.60;;
3004;SDS011;1512;51.486;6.610;2023-04-03T02:49:53;6.27;;;3.90;;
3004;SDS011;1512;51.486;6.610;2023-04-03T02:54:02;5.00;;;4.27;;
3004;SDS011;1512;51.486;6.610;2023-04-03T02:58:11;7.03;;;4.60;;
3004;SDS011;1512;51.486;6.610;2023-04-03T03:02:23;5.53;;;3.63;;
3004;SDS011;1512;51.486;6.610;2023-04-03T03:06:31;3.33;;;3.03;;
3004;SDS011;1512;51.486;6.610;2023-04-03T03:10:40;3.57;;;3.10;;
3004;SDS011;1512;51.486;6.610;2023-04-03T03:14:49;5.10;;;3.80;;
3004;SDS011;1512;51.486;6.610;2023-04-03T03:27:54;6.83;;;3.90;;
3004;SDS011;1512;51.486;6.610;2023-04-03T03:32:03;4.40;;;3.27;;
3004;SDS011;1512;51.486;6.610;2023-04-03T03:36:11;3.97;;;3.07;;
3004;SDS011;1512;51.486;6.610;2023-04-03T03:40:20;3.70;;;2.53;;
3004;SDS011;1512;51.486;6.610;2023-04-03T03:44:29;5.50;;;3.17;;
3004;SDS011;1512;51.486;6.610;2023-04-03T03:48:37;5.53;;;3.30;;
3004;SDS011;1512;51.486;6.610;2023-04-03T03:52:47;2.87;;;2.63;;
3004;SDS011;1512;51.486;6.610;2023-04-03T03:56:55;6.53;;;2.65;;
3004;SDS011;1512;51.486;6.610;2023-04-03T04:01:05;5.23;;;2.30;;
3004;SDS011;1512;51.486;6.610;2023-04-03T04:05:14;5.80;;;2.97;;
3004;SDS011;1512;51.486;6.610;2023-04-03T04:09:23;2.93;;;2.63;;
3004;SDS011;1512;51.486;6.610;2023-04-03T04:13:32;4.00;;;2.70;;
3004;SDS011;1512;51.486;6.610;2023-04-03T04:17:41;3.50;;;2.67;;
3004;SDS011;1512;51.486;6.610;2023-04-03T04:21:50;5.70;;;2.70;;
3004;SDS011;1512;51.486;6.610;2023-04-03T04:25:59;4.60;;;3.13;;
3004;SDS011;1512;51.486;6.610;2023-04-03T04:30:07;3.33;;;2.60;;
3004;SDS011;1512;51.486;6.610;2023-04-03T04:34:17;5.27;;;3.60;;
3004;SDS011;1512;51.486;6.610;2023-04-03T04:42:54;7.10;;;3.60;;
3004;SDS011;1512;51.486;6.610;2023-04-03T04:47:02;4.80;;;3.02;;
3004;SDS011;1512;51.486;6.610;2023-04-03T04:51:11;2.97;;;2.60;;
3004;SDS011;1512;51.486;6.610;2023-04-03T04:55:20;4.97;;;2.93;;
3004;SDS011;1512;51.486;6.610;2023-04-03T04:59:29;4.33;;;2.67;;
3004;SDS011;1512;51.486;6.610;2023-04-03T05:03:37;3.17;;;2.50;;
3004;SDS011;1512;51.486;6.610;2023-04-03T05:07:46;3.13;;;2.83;;
3004;SDS011;1512;51.486;6.610;2023-04-03T05:11:55;6.50;;;2.83;;
3004;SDS011;1512;51.486;6.610;2023-04-03T05:16:03;4.83;;;2.60;;
3004;SDS011;1512;51.486;6.610;2023-04-03T05:20:12;12.63;;;2.63;;
3004;SDS011;1512;51.486;6.610;2023-04-03T05:24:21;2.97;;;2.60;;
3004;SDS011;1512;51.486;6.610;2023-04-03T05:28:30;4.97;;;3.00;;
3004;SDS011;1512;51.486;6.610;2023-04-03T05:32:39;3.53;;;2.60;;
3004;SDS011;1512;51.486;6.610;2023-04-03T05:36:48;6.43;;;3.47;;
3004;SDS011;1512;51.486;6.610;2023-04-03T05:40:57;6.80;;;3.57;;
3004;SDS011;1512;51.486;6.610;2023-04-03T05:45:06;5.03;;;3.10;;
3004;SDS011;1512;51.486;6.610;2023-04-03T05:49:14;3.27;;;3.03;;
3004;SDS011;1512;51.486;6.610;2023-04-03T05:53:27;6.07;;;3.07;;
3004;SDS011;1512;51.486;6.610;2023-04-03T06:02:06;4.27;;;3.07;;
3004;SDS011;1512;51.486;6.610;2023-04-03T06:06:14;2.90;;;2.33;;
3004;SDS011;1512;51.486;6.610;2023-04-03T06:10:23;2.87;;;2.50;;
3004;SDS011;1512;51.486;6.610;2023-04-03T06:14:32;2.77;;;2.57;;
3004;SDS011;1512;51.486;6.610;2023-04-03T06:18:40;4.17;;;3.07;;
3004;SDS011;1512;51.486;6.610;2023-04-03T06:22:49;9.00;;;2.57;;
3004;SDS011;1512;51.486;6.610;2023-04-03T06:26:58;3.10;;;2.90;;
3004;SDS011;1512;51.486;6.610;2023-04-03T06:35:58;3.20;;;2.90;;
3004;SDS011;1512;51.486;6.610;2023-04-03T06:40:09;3.47;;;2.77;;
3004;SDS011;1512;51.486;6.610;2023-04-03T06:44:19;7.33;;;3.07;;
3004;SDS011;1512;51.486;6.610;2023-04-03T06:48:27;2.63;;;2.33;;
3004;SDS011;1512;51.486;6.610;2023-04-03T06:52:37;7.23;;;2.70;;
3004;SDS011;1512;51.486;6.610;2023-04-03T06:56:46;4.67;;;2.70;;
3004;SDS011;1512;51.486;6.610;2023-04-03T07:00:55;8.07;;;2.83;;
3004;SDS011;1512;51.486;6.610;2023-04-03T07:05:04;4.37;;;2.43;;
3004;SDS011;1512;51.486;6.610;2023-04-03T07:09:14;4.57;;;2.70;;
3004;SDS011;1512;51.486;6.610;2023-04-03T07:13:23;9.17;;;3.30;;
3004;SDS011;1512;51.486;6.610;2023-04-03T07:17:32;4.30;;;3.03;;
3004;SDS011;1512;51.486;6.610;2023-04-03T07:21:40;2.80;;;2.60;;
3004;SDS011;1512;51.486;6.610;2023-04-03T07:25:50;6.87;;;3.30;;
3004;SDS011;1512;51.486;6.610;2023-04-03T07:29:59;17.10;;;3.10;;
3004;SDS011;1512;51.486;6.610;2023-04-03T07:34:08;10.27;;;2.83;;
3004;SDS011;1512;51.486;6.610;2023-04-03T07:38:17;4.20;;;2.50;;
3004;SDS011;1512;51.486;6.610;2023-04-03T07:42:26;2.50;;;2.30;;
3004;SDS011;1512;51.486;6.610;2023-04-03T07:46:35;4.80;;;2.80;;
3004;SDS011;1512;51.486;6.610;2023-04-03T07:50:44;2.90;;;2.60;;
3004;SDS011;1512;51.486;6.610;2023-04-03T07:54:53;3.40;;;2.67;;
3004;SDS011;1512;51.486;6.610;2023-04-03T07:59:01;4.43;;;4.13;;
3004;SDS011;1512;51.486;6.610;2023-04-03T08:03:11;8.30;;;3.10;;
3004;SDS011;1512;51.486;6.610;2023-04-03T08:07:21;3.03;;;2.37;;
3004;SDS011;1512;51.486;6.610;2023-04-03T08:11:29;5.07;;;3.40;;
3004;SDS011;1512;51.486;6.610;2023-04-03T08:15:38;6.23;;;2.67;;
3004;SDS011;1512;51.486;6.610;2023-04-03T08:19:48;2.37;;;2.17;;
3004;SDS011;1512;51.486;6.610;2023-04-03T08:23:57;3.67;;;2.20;;
3004;SDS011;1512;51.486;6.610;2023-04-03T08:28:05;3.43;;;2.47;;
3004;SDS011;1512;51.486;6.610;2023-04-03T08:32:14;2.63;;;2.00;;
3004;SDS011;1512;51.486;6.610;2023-04-03T08:36:24;3.23;;;2.30;;
3004;SDS011;1512;51.486;6.610;2023-04-03T08:40:34;5.53;;;3.00;;
3004;SDS011;1512;51.486;6.610;2023-04-03T08:44:57;5.17;;;2.10;;
3004;SDS011;1512;51.486;6.610;2023-04-03T08:49:35;2.77;;;2.10;;
3004;SDS011;1512;51.486;6.610;2023-04-03T08:54:12;2.20;;;2.00;;
3004;SDS011;1512;51.486;6.610;2023-04-03T08:58:11;3.43;;;2.30;;
3004;SDS011;1512;51.486;6.610;2023-04-03T09:02:44;2.63;;;2.43;;
3004;SDS011;1512;51.486;6.610;2023-04-03T09:06:56;3.90;;;2.20;;
3004;SDS011;1512;51.486;6.610;2023-04-03T09:11:25;2.07;;;1.87;;
3004;SDS011;1512;51.486;6.610;2023-04-03T09:15:54;2.30;;;2.10;;
3004;SDS011;1512;51.486;6.610;2023-04-03T09:20:17;2.37;;;1.90;;
3004;SDS011;1512;51.486;6.610;2023-04-03T09:24:36;2.37;;;1.60;;
3004;SDS011;1512;51.486;6.610;2023-04-03T09:28:45;2.20;;;2.00;;
3004;SDS011;1512;51.486;6.610;2023-04-03T09:32:56;1.93;;;1.67;;
3004;SDS011;1512;51.486;6.610;2023-04-03T09:37:05;2.00;;;1.80;;
3004;SDS011;1512;51.486;6.610;2023-04-03T09:41:16;5.03;;;2.13;;
3004;SDS011;1512;51.486;6.610;2023-04-03T09:45:30;2.63;;;2.37;;
3004;SDS011;1512;51.486;6.610;2023-04-03T09:49:41;2.50;;;2.07;;
3004;SDS011;1512;51.486;6.610;2023-04-03T09:58:39;2.10;;;1.90;;
3004;SDS011;1512;51.486;6.610;2023-04-03T10:02:53;2.20;;;2.00;;
3004;SDS011;1512;51.486;6.610;2023-04-03T10:07:25;3.40;;;3.03;;
3004;SDS011;1512;51.486;6.610;2023-04-03T10:12:09;2.23;;;1.80;;
3004;SDS011;1512;51.486;6.610;2023-04-03T10:16:12;4.73;;;2.03;;
3004;SDS011;1512;51.486;6.610;2023-04-03T10:33:50;4.50;;;2.20;;
3004;SDS011;1512;51.486;6.610;2023-04-03T10:51:06;2.33;;;2.10;;
3004;SDS011;1512;51.486;6.610;2023-04-03T10:59:47;2.23;;;2.10;;
3004;SDS011;1512;51.486;6.610;2023-04-03T11:12:58;2.07;;;1.87;;
3004;SDS011;1512;51.486;6.610;2023-04-03T11:17:15;4.80;;;2.13;;
3004;SDS011;1512;51.486;6.610;2023-04-03T11:21:29;3.27;;;2.40;;
3004;SDS011;1512;51.486;6.610;2023-04-03T11:26:10;3.67;;;2.53;;
3004;SDS011;1512;51.486;6.610;2023-04-03T11:31:05;9.83;;;2.23;;
3004;SDS011;1512;51.486;6.610;2023-04-03T11:34:40;4.10;;;2.37;;
3004;SDS011;1512;51.486;6.610;2023-04-03T11:38:54;5.30;;;2.40;;
3004;SDS011;1512;51.486;6.610;2023-04-03T11:43:05;2.27;;;2.07;;
3004;SDS011;1512;51.486;6.610;2023-04-03T11:51:47;3.63;;;2.67;;
3004;SDS011;1512;51.486;6.610;2023-04-03T11:55:57;3.10;;;2.23;;
3004;SDS011;1512;51.486;6.610;2023-04-03T12:23:07;2.40;;;2.10;;
3004;SDS011;1512;51.486;6.610;2023-04-03T12:27:34;2.53;;;2.30;;
3004;SDS011;1512;51.486;6.610;2023-04-03T12:32:06;2.73;;;2.27;;
3004;SDS011;1512;51.486;6.610;2023-04-03T12:36:11;2.20;;;2.00;;
3004;SDS011;1512;51.486;6.610;2023-04-03T12:45:24;4.13;;;2.40;;
3004;SDS011;1512;51.486;6.610;2023-04-03T12:53:38;2.70;;;2.50;;
3004;SDS011;1512;51.486;6.610;2023-04-03T12:57:47;2.70;;;2.37;;
3004;SDS011;1512;51.486;6.610;2023-04-03T13:01:59;6.37;;;2.90;;
3004;SDS011;1512;51.486;6.610;2023-04-03T13:06:19;4.70;;;2.70;;
3004;SDS011;1512;51.486;6.610;2023-04-03T13:11:01;2.92;;;2.40;;
3004;SDS011;1512;51.486;6.610;2023-04-03T13:15:19;2.50;;;2.10;;
3004;SDS011;1512;51.486;6.610;2023-04-03T13:19:46;3.17;;;2.33;;
3004;SDS011;1512;51.486;6.610;2023-04-03T13:24:00;6.50;;;3.90;;
3004;SDS011;1512;51.486;6.610;2023-04-03T13:28:12;2.63;;;2.43;;
3004;SDS011;1512;51.486;6.610;2023-04-03T13:32:24;3.20;;;2.33;;
3004;SDS011;1512;51.486;6.610;2023-04-03T13:36:41;2.23;;;2.03;;
3004;SDS011;1512;51.486;6.610;2023-04-03T13:40:53;2.97;;;2.57;;
3004;SDS011;1512;51.486;6.610;2023-04-03T13:45:11;2.50;;;2.30;;
3004;SDS011;1512;51.486;6.610;2023-04-03T13:49:36;2.20;;;2.00;;
3004;SDS011;1512;51.486;6.610;2023-04-03T13:53:48;2.63;;;2.33;;
3004;SDS011;1512;51.486;6.610;2023-04-03T14:02:29;3.73;;;2.63;;
3004;SDS011;1512;51.486;6.610;2023-04-03T14:06:40;2.30;;;2.10;;
3004;SDS011;1512;51.486;6.610;2023-04-03T14:10:49;3.33;;;2.30;;
3004;SDS011;1512;51.486;6.610;2023-04-03T14:14:59;3.93;;;2.37;;
3004;SDS011;1512;51.486;6.610;2023-04-03T14:19:20;5.80;;;2.80;;
3004;SDS011;1512;51.486;6.610;2023-04-03T14:23:30;3.30;;;2.77;;
3004;SDS011;1512;51.486;6.610;2023-04-03T14:27:41;4.27;;;2.27;;
3004;SDS011;1512;51.486;6.610;2023-04-03T14:31:51;3.27;;;2.00;;
3004;SDS011;1512;51.486;6.610;2023-04-03T14:36:05;6.83;;;2.67;;
3004;SDS011;1512;51.486;6.610;2023-04-03T14:40:18;2.70;;;2.50;;
3004;SDS011;1512;51.486;6.610;2023-04-03T14:44:28;3.10;;;1.83;;
3004;SDS011;1512;51.486;6.610;2023-04-03T14:48:37;2.30;;;2.10;;
3004;SDS011;1512;51.486;6.610;2023-04-03T14:52:47;3.20;;;2.00;;
3004;SDS011;1512;51.486;6.610;2023-04-03T14:56:58;2.10;;;1.90;;
3004;SDS011;1512;51.486;6.610;2023-04-03T15:01:09;2.77;;;1.93;;
3004;SDS011;1512;51.486;6.610;2023-04-03T15:05:21;3.73;;;2.10;;
3004;SDS011;1512;51.486;6.610;2023-04-03T15:09:29;2.60;;;2.40;;
3004;SDS011;1512;51.486;6.610;2023-04-03T15:13:38;3.07;;;2.30;;
3004;SDS011;1512;51.486;6.610;2023-04-03T15:17:49;3.00;;;2.27;;
3004;SDS011;1512;51.486;6.610;2023-04-03T15:22:02;3.77;;;2.60;;
3004;SDS011;1512;51.486;6.610;2023-04-03T15:26:10;2.17;;;1.97;;
3004;SDS011;1512;51.486;6.610;2023-04-03T15:30:19;2.33;;;2.13;;
3004;SDS011;1512;51.486;6.610;2023-04-03T15:34:30;3.30;;;3.00;;
3004;SDS011;1512;51.486;6.610;2023-04-03T15:38:38;2.23;;;2.03;;
3004;SDS011;1512;51.486;6.610;2023-04-03T15:42:47;2.87;;;2.53;;
3004;SDS011;1512;51.486;6.610;2023-04-03T15:46:57;2.60;;;2.40;;
3004;SDS011;1512;51.486;6.610;2023-04-03T15:51:07;4.62;;;2.35;;
3004;SDS011;1512;51.486;6.610;2023-04-03T15:55:15;2.70;;;2.50;;
3004;SDS011;1512;51.486;6.610;2023-04-03T15:59:24;3.23;;;2.37;;
3004;SDS011;1512;51.486;6.610;2023-04-03T16:03:33;2.40;;;2.20;;
3004;SDS011;1512;51.486;6.610;2023-04-03T16:07:41;2.67;;;2.20;;
3004;SDS011;1512;51.486;6.610;2023-04-03T16:11:50;4.20;;;2.13;;
3004;SDS011;1512;51.486;6.610;2023-04-03T16:15:59;3.03;;;2.63;;
3004;SDS011;1512;51.486;6.610;2023-04-03T16:20:09;2.87;;;2.63;;
3004;SDS011;1512;51.486;6.610;2023-04-03T16:24:19;2.70;;;2.50;;
3004;SDS011;1512;51.486;6.610;2023-04-03T16:28:28;3.27;;;2.97;;
3004;SDS011;1512;51.486;6.610;2023-04-03T16:32:37;2.63;;;2.43;;
3004;SDS011;1512;51.486;6.610;2023-04-03T16:36:49;4.73;;;2.20;;
3004;SDS011;1512;51.486;6.610;2023-04-03T16:40:59;8.23;;;3.07;;
3004;SDS011;1512;51.486;6.610;2023-04-03T16:45:10;4.80;;;2.73;;
3004;SDS011;1512;51.486;6.610;2023-04-03T16:49:19;2.60;;;2.40;;
3004;SDS011;1512;51.486;6.610;2023-04-03T16:53:27;3.20;;;2.47;;
3004;SDS011;1512;51.486;6.610;2023-04-03T16:57:37;2.80;;;2.47;;
3004;SDS011;1512;51.486;6.610;2023-04-03T17:01:46;5.27;;;2.70;;
3004;SDS011;1512;51.486;6.610;2023-04-03T17:05:55;2.20;;;2.00;;
3004;SDS011;1512;51.486;6.610;2023-04-03T17:10:04;3.63;;;2.53;;
3004;SDS011;1512;51.486;6.610;2023-04-03T17:14:13;4.13;;;2.47;;
3004;SDS011;1512;51.486;6.610;2023-04-03T17:18:21;2.60;;;2.40;;
3004;SDS011;1512;51.486;6.610;2023-04-03T17:22:30;3.20;;;2.60;;
3004;SDS011;1512;51.486;6.610;2023-04-03T17:26:39;7.43;;;2.73;;
3004;SDS011;1512;51.486;6.610;2023-04-03T17:30:49;2.55;;;2.33;;
3004;SDS011;1512;51.486;6.610;2023-04-03T17:34:58;3.13;;;2.70;;
3004;SDS011;1512;51.486;6.610;2023-04-03T17:39:07;4.53;;;2.67;;
3004;SDS011;1512;51.486;6.610;2023-04-03T17:43:16;3.13;;;2.47;;
3004;SDS011;1512;51.486;6.610;2023-04-03T17:47:24;2.90;;;2.57;;
3004;SDS011;1512;51.486;6.610;2023-04-03T17:51:33;3.33;;;2.50;;
3004;SDS011;1512;51.486;6.610;2023-04-03T17:55:42;2.80;;;2.57;;
3004;SDS011;1512;51.486;6.610;2023-04-03T17:59:50;2.63;;;2.20;;
3004;SDS011;1512;51.486;6.610;2023-04-03T18:04:01;4.20;;;3.27;;
3004;SDS011;1512;51.486;6.610;2023-04-03T18:08:11;3.00;;;2.33;;
3004;SDS011;1512;51.486;6.610;2023-04-03T18:12:19;2.43;;;2.20;;
3004;SDS011;1512;51.486;6.610;2023-04-03T18:16:29;2.97;;;1.90;;
3004;SDS011;1512;51.486;6.610;2023-04-03T18:20:37;2.10;;;2.00;;
3004;SDS011;1512;51.486;6.610;2023-04-03T18:24:46;3.73;;;3.20;;
3004;SDS011;1512;51.486;6.610;2023-04-03T18:28:57;2.30;;;2.10;;
3004;SDS011;1512;51.486;6.610;2023-04-03T18:33:08;5.90;;;2.83;;
3004;SDS011;1512;51.486;6.610;2023-04-03T18:37:17;4.63;;;2.40;;
3004;SDS011;1512;51.486;6.610;2023-04-03T18:41:28;2.43;;;2.17;;
3004;SDS011;1512;51.486;6.610;2023-04-03T18:45:39;4.00;;;2.53;;
3004;SDS011;1512;51.486;6.610;2023-04-03T18:49:48;2.40;;;2.20;;
3004;SDS011;1512;51.486;6.610;2023-04-03T18:53:57;5.23;;;2.33;;
3004;SDS011;1512;51.486;6.610;2023-04-03T18:58:06;2.30;;;2.10;;
3004;SDS011;1512;51.486;6.610;2023-04-03T19:02:15;4.53;;;2.10;;
3004;SDS011;1512;51.486;6.610;2023-04-03T19:06:26;2.67;;;2.47;;
3004;SDS011;1512;51.486;6.610;2023-04-03T19:10:35;2.43;;;2.23;;
3004;SDS011;1512;51.486;6.610;2023-04-03T19:14:44;2.70;;;2.23;;
3004;SDS011;1512;51.486;6.610;2023-04-03T19:18:52;2.60;;;1.93;;
3004;SDS011;1512;51.486;6.610;2023-04-03T19:23:04;4.00;;;2.63;;
3004;SDS011;1512;51.486;6.610;2023-04-03T19:27:14;2.87;;;2.67;;
3004;SDS011;1512;51.486;6.610;2023-04-03T19:31:23;3.20;;;2.47;;
3004;SDS011;1512;51.486;6.610;2023-04-03T19:35:32;2.27;;;2.07;;
3004;SDS011;1512;51.486;6.610;2023-04-03T19:44:09;5.40;;;2.50;;
3004;SDS011;1512;51.486;6.610;2023-04-03T19:48:18;3.90;;;2.50;;
3004;SDS011;1512;51.486;6.610;2023-04-03T19:52:27;5.47;;;3.10;;
3004;SDS011;1512;51.486;6.610;2023-04-03T19:56:35;3.50;;;2.30;;
3004;SDS011;1512;51.486;6.610;2023-04-03T20:00:44;3.90;;;2.70;;
3004;SDS011;1512;51.486;6.610;2023-04-03T20:04:53;4.30;;;2.70;;
3004;SDS011;1512;51.486;6.610;2023-04-03T20:09:01;2.73;;;2.43;;
3004;SDS011;1512;51.486;6.610;2023-04-03T20:13:10;3.13;;;2.67;;
3004;SDS011;1512;51.486;6.610;2023-04-03T20:17:20;3.77;;;3.37;;
3004;SDS011;1512;51.486;6.610;2023-04-03T20:21:30;3.67;;;2.90;;
3004;SDS011;1512;51.486;6.610;2023-04-03T20:30:10;3.30;;;2.80;;
3004;SDS011;1512;51.486;6.610;2023-04-03T20:34:20;3.57;;;2.00;;
3004;SDS011;1512;51.486;6.610;2023-04-03T20:38:29;2.67;;;2.43;;
3004;SDS011;1512;51.486;6.610;2023-04-03T20:42:37;3.80;;;2.53;;
3004;SDS011;1512;51.486;6.610;2023-04-03T20:46:46;3.57;;;3.00;;
3004;SDS011;1512;51.486;6.610;2023-04-03T20:50:57;3.10;;;2.63;;
3004;SDS011;1512;51.486;6.610;2023-04-03T20:55:07;4.47;;;2.67;;
3004;SDS011;1512;51.486;6.610;2023-04-03T20:59:16;4.10;;;3.33;;
3004;SDS011;1512;51.486;6.610;2023-04-03T21:03:27;5.60;;;2.90;;
3004;SDS011;1512;51.486;6.610;2023-04-03T21:21:22;12.40;;;3.50;;
3004;SDS011;1512;51.486;6.610;2023-04-03T21:25:32;4.23;;;3.03;;
3004;SDS011;1512;51.486;6.610;2023-04-03T21:29:41;5.07;;;3.50;;
3004;SDS011;1512;51.486;6.610;2023-04-03T21:33:49;3.70;;;2.90;;
3004;SDS011;1512;51.486;6.610;2023-04-03T21:37:58;4.93;;;2.63;;
3004;SDS011;1512;51.486;6.610;2023-04-03T21:42:07;4.90;;;3.30;;
3004;SDS011;1512;51.486;6.610;2023-04-03T21:46:16;3.43;;;2.80;;
3004;SDS011;1512;51.486;6.610;2023-04-03T21:50:26;6.13;;;2.40;;
3004;SDS011;1512;51.486;6.610;2023-04-03T21:54:35;3.27;;;2.97;;
3004;SDS011;1512;51.486;6.610;2023-04-03T21:58:43;4.80;;;3.20;;
3004;SDS011;1512;51.486;6.610;2023-04-03T22:02:52;4.65;;;3.17;;
3004;SDS011;1512;51.486;6.610;2023-04-03T22:07:02;3.80;;;3.50;;
3004;SDS011;1512;51.486;6.610;2023-04-03T22:11:13;6.70;;;2.87;;
3004;SDS011;1512;51.486;6.610;2023-04-03T22:15:22;6.03;;;4.43;;
3004;SDS011;1512;51.486;6.610;2023-04-03T22:19:31;4.77;;;3.60;;
3004;SDS011;1512;51.486;6.610;2023-04-03T22:23:40;8.30;;;3.87;;
3004;SDS011;1512;51.486;6.610;2023-04-03T22:27:48;11.20;;;3.57;;
3004;SDS011;1512;51.486;6.610;2023-04-03T22:31:57;5.80;;;3.43;;
3004;SDS011;1512;51.486;6.610;2023-04-03T22:36:07;5.03;;;3.03;;
3004;SDS011;1512;51.486;6.610;2023-04-03T22:40:16;4.43;;;2.80;;
3004;SDS011;1512;51.486;6.610;2023-04-03T22:44:25;5.10;;;3.10;;
3004;SDS011;1512;51.486;6.610;2023-04-03T22:48:36;3.57;;;3.10;;
3004;SDS011;1512;51.486;6.610;2023-04-03T22:52:46;4.37;;;3.13;;
3004;SDS011;1512;51.486;6.610;2023-04-03T22:56:55;4.50;;;3.40;;
3004;SDS011;1512;51.486;6.610;2023-04-03T23:01:05;9.10;;;4.20;;
3004;SDS011;1512;51.486;6.610;2023-04-03T23:05:14;3.80;;;2.67;;
3004;SDS011;1512;51.486;6.610;2023-04-03T23:09:23;5.07;;;3.57;;
3004;SDS011;1512;51.486;6.610;2023-04-03T23:13:32;9.53;;;3.60;;
3004;SDS011;1512;51.486;6.610;2023-04-03T23:17:40;4.60;;;3.33;;
3004;SDS011;1512;51.486;6.610;2023-04-03T23:21:49;4.30;;;3.57;;
3004;SDS011;1512;51.486;6.610;2023-04-03T23:25:59;6.00;;;3.80;;
3004;SDS011;1512;51.486;6.610;2023-04-03T23:30:09;9.13;;;5.20;;
3004;SDS011;1512;51.486;6.610;2023-04-03T23:34:18;6.83;;;3.73;;
3004;SDS011;1512;51.486;6.610;2023-04-03T23:38:27;5.10;;;3.33;;
3004;SDS011;1512;51.486;6.610;2023-04-03T23:42:35;6.43;;;3.90;;
3004;SDS011;1512;51.486;6.610;2023-04-03T23:46:44;6.83;;;3.85;;
3004;SDS011;1512;51.486;6.610;2023-04-03T23:50:52;5.90;;;4.00;;
3004;SDS011;1512;51.486;6.610;2023-04-03T23:55:01;6.47;;;4.77;;
3004;SDS011;1512;51.486;6.610;2023-04-03T23:59:12;4.03;;;3.27;;
